createdAt,value
2023-03-08T00:04:16.420Z,4.35
2023-03-08T00:09:15.170Z,5.22
2023-03-08T00:14:13.904Z,5.03
2023-03-08T00:19:12.665Z,6.10
2023-03-08T00:24:16.843Z,7.35
2023-03-08T00:29:15.701Z,7.97
2023-03-08T00:34:14.803Z,10.70
2023-03-08T00:39:16.608Z,12.10
2023-03-08T00:44:15.472Z,12.18
2023-03-08T00:49:14.718Z,12.32
2023-03-08T00:54:14.773Z,11.90
2023-03-08T00:59:13.515Z,10.05
2023-03-08T01:04:13.209Z,8.85
2023-03-08T01:09:14.067Z,6.97
2023-03-08T01:14:12.896Z,6.10
2023-03-08T01:19:12.468Z,5.50
2023-03-08T01:24:14.597Z,6.20
2023-03-08T01:29:13.465Z,5.68
2023-03-08T01:34:12.203Z,5.50
2023-03-08T01:39:10.962Z,4.68
2023-03-08T01:44:16.947Z,5.40
2023-03-08T01:49:18.980Z,4.90
2023-03-08T01:54:22.128Z,4.28
2023-03-08T01:59:24.191Z,5.27
2023-03-08T02:04:22.956Z,4.20
2023-03-08T02:09:22.643Z,4.20
2023-03-08T02:14:23.082Z,4.68
2023-03-08T02:19:27.790Z,4.88
2023-03-08T02:29:26.429Z,4.28
2023-03-08T02:34:26.596Z,4.03
2023-03-08T02:39:25.426Z,4.00
2023-03-08T02:44:28.314Z,4.07
2023-03-08T02:49:27.050Z,3.97
2023-03-08T02:54:26.050Z,3.90
2023-03-08T02:59:25.081Z,5.25
2023-03-08T03:04:54.005Z,4.55
2023-03-08T03:09:53.490Z,4.00
2023-03-08T03:14:52.396Z,4.35
2023-03-08T03:19:52.571Z,5.25
2023-03-08T03:24:51.464Z,6.18
2023-03-08T03:29:50.962Z,5.43
2023-03-08T03:34:50.302Z,5.70
2023-03-08T03:39:53.385Z,5.97
2023-03-08T03:44:52.931Z,4.97
2023-03-08T03:49:53.444Z,4.38
2023-03-08T03:54:55.155Z,5.00
2023-03-08T03:59:54.718Z,5.57
2023-03-08T04:04:55.203Z,4.90
2023-03-08T04:09:59.678Z,5.50
2023-03-08T04:14:58.648Z,5.30
2023-03-08T04:20:01.804Z,4.88
2023-03-08T04:25:07.655Z,5.95
2023-03-08T04:30:15.232Z,6.40
2023-03-08T04:35:14.549Z,6.03
2023-03-08T04:40:17.392Z,6.75
2023-03-08T04:45:23.772Z,7.60
2023-03-08T04:50:24.105Z,5.97
2023-03-08T04:55:26.596Z,5.50
2023-03-08T05:00:25.716Z,6.18
2023-03-08T05:05:25.433Z,5.80
2023-03-08T05:10:27.421Z,6.90
2023-03-08T05:15:26.344Z,8.50
2023-03-08T05:20:25.306Z,7.38
2023-03-08T05:25:24.249Z,6.78
2023-03-08T05:30:25.299Z,6.03
2023-03-08T05:35:24.416Z,9.32
2023-03-08T05:40:23.637Z,8.35
2023-03-08T05:45:25.577Z,10.10
2023-03-08T05:50:25.621Z,11.13
2023-03-08T05:55:25.576Z,10.77
2023-03-08T06:00:27.594Z,9.73
2023-03-08T06:05:31.260Z,9.48
2023-03-08T06:10:31.293Z,7.03
2023-03-08T06:15:32.001Z,10.25
2023-03-08T06:20:32.979Z,8.50
2023-03-08T06:25:32.744Z,11.55
2023-03-08T06:30:33.643Z,9.80
2023-03-08T06:35:35.165Z,7.70
2023-03-08T06:40:35.431Z,5.85
2023-03-08T06:45:38.759Z,7.60
2023-03-08T06:55:36.652Z,5.00
2023-03-08T07:00:37.076Z,5.32
2023-03-08T07:05:35.824Z,3.92
2023-03-08T07:10:35.228Z,4.68
2023-03-08T07:15:34.032Z,4.78
2023-03-08T07:20:34.377Z,3.70
2023-03-08T07:25:33.127Z,4.43
2023-03-08T07:30:31.909Z,5.85
2023-03-08T07:35:30.983Z,3.72
2023-03-08T07:40:31.214Z,4.13
2023-03-08T07:45:39.610Z,3.97
2023-03-08T07:50:38.525Z,4.40
2023-03-08T07:55:39.446Z,3.58
2023-03-08T08:00:38.194Z,4.10
2023-03-08T08:05:37.478Z,3.45
2023-03-08T08:10:36.261Z,4.50
2023-03-08T08:15:36.551Z,3.40
2023-03-08T08:20:40.757Z,3.00
2023-03-08T08:25:40.922Z,3.10
2023-03-08T08:30:40.983Z,2.47
2023-03-08T08:35:43.385Z,2.90
2023-03-08T08:40:42.462Z,3.53
2023-03-08T08:45:45.957Z,2.72
2023-03-08T08:50:44.903Z,4.93
2023-03-08T08:55:45.565Z,3.42
2023-03-08T09:00:46.792Z,2.90
2023-03-08T09:05:46.525Z,3.40
2023-03-08T09:10:45.253Z,3.08
2023-03-08T09:15:45.359Z,3.15
2023-03-08T09:20:44.165Z,3.95
2023-03-08T09:25:42.876Z,4.00
2023-03-08T09:30:41.527Z,2.80
2023-03-08T09:35:41.663Z,1.90
2023-03-08T09:40:49.518Z,2.78
2023-03-08T09:45:53.804Z,3.15
2023-03-08T09:50:57.229Z,3.50
2023-03-08T09:56:03.459Z,3.60
2023-03-08T10:01:18.434Z,4.22
2023-03-08T10:06:22.573Z,2.97
2023-03-08T10:11:29.790Z,2.42
2023-03-08T10:16:30.950Z,2.78
2023-03-08T10:21:34.036Z,2.30
2023-03-08T10:26:33.041Z,2.58
2023-03-08T10:31:33.730Z,2.58
2023-03-08T10:36:34.052Z,2.72
2023-03-08T10:41:37.777Z,2.45
2023-03-08T10:46:47.596Z,2.30
2023-03-08T10:51:59.645Z,3.97
2023-03-08T10:57:00.818Z,2.90
2023-03-08T11:02:03.233Z,3.05
2023-03-08T11:12:25.074Z,2.00
2023-03-08T11:17:29.444Z,2.00
2023-03-08T11:22:47.777Z,2.50
2023-03-08T11:27:58.370Z,2.97
2023-03-08T11:33:32.271Z,2.33
2023-03-08T11:38:34.797Z,2.35
2023-03-08T11:43:49.116Z,2.17
2023-03-08T11:49:05.293Z,2.65
2023-03-08T11:54:16.249Z,2.28
2023-03-08T11:59:28.049Z,1.88
2023-03-08T12:04:32.637Z,1.65
2023-03-08T12:09:39.361Z,1.73
2023-03-08T12:14:45.006Z,1.83
2023-03-08T12:19:45.742Z,1.40
2023-03-08T12:24:53.464Z,0.90
2023-03-08T12:29:57.286Z,1.42
2023-03-08T12:35:04.347Z,2.00
2023-03-08T12:40:08.419Z,1.33
2023-03-08T12:45:11.184Z,1.30
2023-03-08T12:50:17.355Z,1.50
2023-03-08T12:55:22.568Z,1.30
2023-03-08T13:00:30.467Z,1.98
2023-03-08T13:05:35.012Z,2.22
2023-03-08T13:10:38.312Z,2.20
2023-03-08T13:15:37.943Z,2.25
2023-03-08T13:20:57.027Z,2.40
2023-03-08T13:26:09.039Z,1.67
2023-03-08T13:31:17.851Z,1.88
2023-03-08T13:36:21.404Z,1.20
2023-03-08T13:41:32.549Z,1.80
2023-03-08T13:46:31.506Z,1.38
2023-03-08T13:51:31.294Z,2.03
2023-03-08T13:56:31.589Z,1.27
2023-03-08T14:01:30.457Z,1.70
2023-03-08T14:06:36.734Z,1.27
2023-03-08T14:11:40.532Z,1.80
2023-03-08T14:16:42.078Z,2.03
2023-03-08T14:27:00.421Z,1.15
2023-03-08T14:32:04.845Z,1.50
2023-03-08T14:37:07.296Z,1.85
2023-03-08T14:42:20.173Z,1.50
2023-03-08T14:47:23.947Z,1.60
2023-03-08T14:52:23.542Z,2.40
2023-03-08T14:57:27.282Z,2.08
2023-03-08T15:02:26.283Z,2.65
2023-03-08T15:07:25.800Z,3.60
2023-03-08T15:12:26.124Z,1.90
2023-03-08T15:17:25.053Z,3.33
2023-03-08T15:22:25.684Z,3.72
2023-03-08T15:27:26.398Z,4.30
2023-03-08T15:32:25.515Z,13.23
2023-03-08T15:37:24.846Z,2.10
2023-03-08T15:42:25.083Z,7.07
2023-03-08T15:47:25.014Z,5.05
2023-03-08T15:52:30.148Z,4.32
2023-03-08T15:57:30.952Z,4.30
2023-03-08T16:02:34.085Z,4.45
2023-03-08T16:07:34.786Z,5.43
2023-03-08T16:12:35.355Z,6.20
2023-03-08T16:17:37.613Z,4.38
2023-03-08T16:22:36.643Z,3.40
2023-03-08T16:27:38.292Z,5.43
2023-03-08T16:32:39.392Z,10.80
2023-03-08T16:37:38.100Z,13.35
2023-03-08T16:42:39.725Z,13.27
2023-03-08T16:47:38.459Z,17.38
2023-03-08T16:52:37.294Z,21.13
2023-03-08T16:57:43.172Z,17.92
2023-03-08T17:02:42.314Z,17.83
2023-03-08T17:07:41.757Z,19.98
2023-03-08T17:12:41.968Z,22.65
2023-03-08T17:17:41.096Z,27.35
2023-03-08T17:22:39.812Z,33.95
2023-03-08T17:27:41.013Z,30.95
2023-03-08T17:32:41.421Z,30.17
2023-03-08T17:37:41.948Z,35.60
2023-03-08T17:42:41.291Z,29.40
2023-03-08T17:47:42.196Z,28.65
2023-03-08T17:52:41.978Z,28.98
2023-03-08T17:57:41.022Z,30.52
2023-03-08T18:02:41.636Z,31.02
2023-03-08T18:07:42.052Z,42.83
2023-03-08T18:12:41.488Z,51.97
2023-03-08T18:17:42.485Z,43.30
2023-03-08T18:22:42.025Z,36.03
2023-03-08T18:27:40.926Z,31.20
2023-03-08T18:32:41.715Z,30.17
2023-03-08T18:37:40.863Z,35.80
2023-03-08T18:42:40.184Z,37.97
2023-03-08T18:47:40.018Z,36.85
2023-03-08T18:52:41.464Z,30.80
2023-03-08T18:57:40.988Z,30.42
2023-03-08T19:02:40.538Z,32.35
2023-03-08T19:07:42.026Z,39.40
2023-03-08T19:12:41.931Z,25.33
2023-03-08T19:17:41.846Z,31.25
2023-03-08T19:22:45.881Z,39.00
2023-03-08T19:27:46.952Z,36.92
2023-03-08T19:32:47.011Z,25.45
2023-03-08T19:37:48.555Z,17.08
2023-03-08T19:42:50.766Z,9.63
2023-03-08T19:47:50.592Z,21.83
2023-03-08T19:52:54.981Z,15.63
2023-03-08T19:57:55.112Z,7.75
2023-03-08T20:02:54.882Z,5.35
2023-03-08T20:07:56.986Z,6.05
2023-03-08T20:12:57.756Z,6.32
2023-03-08T20:17:58.434Z,8.32
2023-03-08T20:23:00.513Z,9.45
2023-03-08T20:28:04.497Z,8.18
2023-03-08T20:33:06.532Z,9.18
2023-03-08T20:38:07.519Z,10.38
2023-03-08T20:43:11.132Z,13.10
2023-03-08T20:48:10.403Z,9.18
2023-03-08T20:53:10.916Z,10.70
2023-03-08T20:58:10.323Z,9.32
2023-03-08T21:03:09.723Z,8.52
2023-03-08T21:08:10.995Z,14.30
2023-03-08T21:13:13.134Z,12.10
2023-03-08T21:18:15.683Z,28.35
2023-03-08T21:23:21.302Z,5.68
2023-03-08T21:28:21.754Z,3.13
2023-03-08T21:33:21.389Z,3.00
2023-03-08T21:38:24.632Z,2.95
2023-03-08T21:43:24.081Z,2.50
2023-03-08T21:48:23.783Z,2.38
2023-03-08T21:53:24.317Z,2.20
2023-03-08T21:58:23.481Z,2.78
2023-03-08T22:03:22.349Z,3.67
2023-03-08T22:08:22.034Z,2.65
2023-03-08T22:13:22.565Z,2.53
2023-03-08T22:18:33.084Z,2.65
2023-03-08T22:23:36.093Z,2.88
2023-03-08T22:28:37.189Z,2.65
2023-03-08T22:33:36.111Z,2.75
2023-03-08T22:38:38.474Z,4.00
2023-03-08T22:43:38.910Z,3.67
2023-03-08T22:48:38.237Z,3.08
2023-03-08T22:53:37.230Z,2.83
2023-03-08T22:58:36.051Z,3.85
2023-03-08T23:03:36.793Z,3.40
2023-03-08T23:08:35.782Z,3.78
2023-03-08T23:13:35.142Z,3.22
2023-03-08T23:18:35.800Z,4.20
2023-03-08T23:23:35.272Z,4.05
2023-03-08T23:28:35.794Z,4.72
2023-03-08T23:33:36.217Z,6.15
2023-03-08T23:38:35.297Z,3.40
2023-03-08T23:43:34.947Z,3.58
2023-03-08T23:48:35.505Z,3.88
2023-03-08T23:53:34.999Z,4.50
2023-03-08T23:58:34.647Z,6.35
